Time;durP1;ratioP1;P1;durP2;ratioP2;P2;SDS_P1;SDS_P2;PMS_P1;PMS_P2;Temp;Humidity;BMP_temperature;BMP_pressure;BME280_temperature;BME280_humidity;BME280_pressure;Samples;Min_cycle;Max_cycle;Signal;HPM_P1;HPM_P2
2022/05/20 00:00:16;;;;;;;4.67;2.60;;;21.20;99.90;;;;;;4996849;28;20797;-45
2022/05/20 00:02:43;;;;;;;2.73;2.53;;;21.20;99.90;;;;;;4996842;28;20470;-43
2022/05/20 00:05:10;;;;;;;2.80;2.50;;;21.20;99.90;;;;;;4996658;28;20519;-41
2022/05/20 00:07:39;;;;;;;3.20;2.90;;;21.10;99.90;;;;;;4996517;28;20498;-35
2022/05/20 00:10:07;;;;;;;3.17;2.87;;;21.10;99.90;;;;;;4996784;28;20479;-47
2022/05/20 00:12:34;;;;;;;4.33;2.83;;;21.10;99.90;;;;;;4996398;28;20490;-46
2022/05/20 00:15:04;;;;;;;4.47;2.93;;;21.10;99.90;;;;;;4996370;28;20444;-48
2022/05/20 00:17:31;;;;;;;3.53;2.77;;;21.00;99.90;;;;;;4995375;28;20457;-47
2022/05/20 00:19:58;;;;;;;3.07;2.60;;;21.00;99.90;;;;;;4995651;28;20495;-42
2022/05/20 00:22:25;;;;;;;10.23;2.93;;;20.90;99.90;;;;;;4995606;28;20487;-44
2022/05/20 00:27:36;;;;;;;6.23;2.73;;;20.80;99.90;;;;;;4995436;28;20410;-48
2022/05/20 00:30:05;;;;;;;2.97;2.60;;;20.80;99.90;;;;;;4995383;28;20479;-47
2022/05/20 00:32:34;;;;;;;7.43;2.73;;;20.70;99.90;;;;;;4994807;28;20451;-51
2022/05/20 00:35:01;;;;;;;3.10;2.43;;;20.70;99.90;;;;;;4994924;28;20486;-44
2022/05/20 00:37:28;;;;;;;2.80;2.57;;;20.70;99.90;;;;;;4994847;28;20509;-46
2022/05/20 00:39:54;;;;;;;3.00;2.67;;;20.60;99.90;;;;;;4995547;28;20462;-39
2022/05/20 00:42:21;;;;;;;4.33;2.30;;;20.50;99.90;;;;;;4994416;28;20453;-42
2022/05/20 00:44:48;;;;;;;2.87;2.63;;;20.50;99.90;;;;;;4994734;28;20490;-47
2022/05/20 00:47:16;;;;;;;2.97;2.70;;;20.50;99.90;;;;;;4995434;28;20447;-42
2022/05/20 00:49:46;;;;;;;3.83;2.70;;;20.40;99.90;;;;;;4994546;28;20553;-42
2022/05/20 00:52:16;;;;;;;3.10;2.67;;;20.30;99.90;;;;;;4994382;28;20447;-48
2022/05/20 00:54:48;;;;;;;2.70;2.50;;;20.30;99.90;;;;;;4994850;28;20435;-45
2022/05/20 00:57:22;;;;;;;4.57;3.13;;;20.20;99.90;;;;;;4994499;28;20435;-45
2022/05/20 00:59:53;;;;;;;4.63;3.70;;;20.20;99.90;;;;;;4994948;28;20434;-39
2022/05/20 01:02:23;;;;;;;4.20;3.40;;;20.10;99.90;;;;;;4994793;28;20494;-45
2022/05/20 01:04:50;;;;;;;5.00;2.60;;;20.10;99.90;;;;;;4995002;28;20427;-42
2022/05/20 01:07:19;;;;;;;3.10;2.80;;;20.10;99.90;;;;;;4995696;28;20522;-43
2022/05/20 01:09:46;;;;;;;4.03;3.30;;;20.10;99.90;;;;;;4995501;28;20493;-44
2022/05/20 01:12:13;;;;;;;3.30;3.00;;;20.10;99.90;;;;;;4995478;28;20483;-38
2022/05/20 01:14:43;;;;;;;4.70;3.50;;;20.00;99.90;;;;;;4995446;28;20470;-44
2022/05/20 01:17:10;;;;;;;4.30;3.80;;;20.00;99.90;;;;;;4996186;28;20451;-42
2022/05/20 01:19:41;;;;;;;4.93;2.90;;;19.90;99.90;;;;;;4995666;28;20463;-43
2022/05/20 01:22:12;;;;;;;3.43;2.70;;;19.90;99.90;;;;;;4996223;28;20448;-42
2022/05/20 01:24:40;;;;;;;6.77;2.80;;;19.90;99.90;;;;;;4995597;28;20427;-41
2022/05/20 01:27:07;;;;;;;3.53;3.00;;;19.80;99.90;;;;;;4995837;28;20463;-46
2022/05/20 01:29:34;;;;;;;4.83;2.90;;;19.80;99.90;;;;;;4995740;28;20473;-44
2022/05/20 01:32:00;;;;;;;3.90;3.20;;;19.70;99.90;;;;;;4995174;28;20490;-47
2022/05/20 01:34:27;;;;;;;3.60;2.90;;;19.70;99.90;;;;;;4995202;28;20454;-47
2022/05/20 01:36:54;;;;;;;5.60;5.07;;;19.70;99.90;;;;;;4995576;28;20447;-46
2022/05/20 01:39:23;;;;;;;4.00;2.70;;;19.60;99.90;;;;;;4995835;28;20470;-43
2022/05/20 01:41:59;;;;;;;4.60;3.13;;;19.60;99.90;;;;;;4995262;28;20443;-41
2022/05/20 01:44:34;;;;;;;5.20;4.13;;;19.60;99.90;;;;;;4995561;28;20498;-45
2022/05/20 01:47:07;;;;;;;5.47;4.40;;;19.50;99.90;;;;;;4994956;28;20527;-50
2022/05/20 01:49:44;;;;;;;5.50;4.30;;;19.40;99.90;;;;;;4995379;28;20489;-49
2022/05/20 01:52:21;;;;;;;5.37;4.87;;;19.40;99.90;;;;;;4995207;28;20462;-38
2022/05/20 01:54:59;;;;;;;5.67;4.07;;;19.40;99.90;;;;;;4999265;28;20462;-47
2022/05/20 01:57:34;;;;;;;6.70;6.00;;;19.30;99.90;;;;;;4998587;28;20521;-45
2022/05/20 02:00:06;;;;;;;6.00;5.40;;;19.30;99.90;;;;;;4998972;28;20422;-51
2022/05/20 02:02:38;;;;;;;7.83;5.50;;;19.30;99.90;;;;;;4998636;28;20526;-45
2022/05/20 02:05:12;;;;;;;6.37;5.80;;;19.20;99.90;;;;;;4998759;28;20426;-43
2022/05/20 02:07:46;;;;;;;8.40;6.00;;;19.10;99.90;;;;;;4998923;28;20454;-42
2022/05/20 02:10:19;;;;;;;6.30;5.30;;;19.10;99.90;;;;;;4998895;28;20430;-48
2022/05/20 02:12:51;;;;;;;5.93;5.23;;;19.10;99.90;;;;;;4998758;28;20435;-49
2022/05/20 02:15:23;;;;;;;6.63;5.70;;;19.10;99.90;;;;;;4998604;28;20458;-41
2022/05/20 02:17:54;;;;;;;6.57;5.97;;;19.10;99.90;;;;;;4998581;28;20430;-48
2022/05/20 02:20:26;;;;;;;5.97;5.40;;;19.00;99.90;;;;;;4998646;28;20462;-46
2022/05/20 02:22:59;;;;;;;6.90;6.23;;;19.00;99.90;;;;;;4998601;28;20431;-43
2022/05/20 02:25:29;;;;;;;6.63;5.87;;;19.00;99.90;;;;;;4998207;28;20431;-43
2022/05/20 02:28:02;;;;;;;5.60;5.10;;;19.00;99.90;;;;;;4998640;28;20467;-49
2022/05/20 02:30:34;;;;;;;6.83;6.03;;;19.10;99.90;;;;;;4998185;28;20501;-41
2022/05/20 02:33:07;;;;;;;7.37;5.70;;;19.10;99.90;;;;;;4998592;28;20479;-39
2022/05/20 02:35:34;;;;;;;6.57;5.97;;;19.20;99.90;;;;;;4998610;28;20478;-49
2022/05/20 02:38:07;;;;;;;7.03;5.93;;;19.20;99.90;;;;;;4998636;28;20490;-42
2022/05/20 02:40:38;;;;;;;7.30;6.60;;;19.20;99.90;;;;;;4998649;28;20439;-42
2022/05/20 02:43:07;;;;;;;11.27;6.97;;;19.20;99.90;;;;;;4998728;28;20427;-46
2022/05/20 02:45:34;;;;;;;9.70;6.70;;;19.20;99.90;;;;;;4998222;28;20467;-46
2022/05/20 02:48:00;;;;;;;6.97;5.93;;;19.20;99.90;;;;;;4998189;28;20427;-42
2022/05/20 02:50:29;;;;;;;7.27;6.17;;;19.20;99.90;;;;;;4998056;28;20446;-38
2022/05/20 02:52:56;;;;;;;8.20;7.10;;;19.20;99.90;;;;;;4998171;28;20486;-48
2022/05/20 02:55:22;;;;;;;7.20;6.50;;;19.20;99.90;;;;;;4987575;28;20465;-48
2022/05/20 02:57:49;;;;;;;7.30;6.40;;;19.20;99.90;;;;;;4998300;28;20462;-45
2022/05/20 03:05:51;;;;;;;7.60;6.80;;;19.10;99.90;;;;;;4997021;28;20480;-50
2022/05/20 03:08:17;;;;;;;8.10;7.00;;;19.20;99.90;;;;;;4997553;28;20481;-46
2022/05/20 03:10:44;;;;;;;7.90;7.10;;;19.10;99.90;;;;;;4977353;29;20475;-48
2022/05/20 03:13:11;;;;;;;6.23;5.63;;;19.10;99.90;;;;;;4977423;29;20451;-46
2022/05/20 03:15:42;;;;;;;7.20;5.90;;;19.20;99.90;;;;;;4978131;29;20468;-42
2022/05/20 03:18:10;;;;;;;8.40;7.37;;;19.20;99.90;;;;;;4977650;29;20444;-51
2022/05/20 03:20:38;;;;;;;8.87;7.30;;;19.30;99.90;;;;;;4977463;29;20808;-43
2022/05/20 03:23:05;;;;;;;7.90;6.60;;;19.20;99.90;;;;;;4978286;29;20459;-47
2022/05/20 03:25:32;;;;;;;12.10;6.60;;;19.30;99.90;;;;;;4978433;28;20451;-46
2022/05/20 03:28:04;;;;;;;7.53;6.60;;;19.30;99.90;;;;;;4978388;29;20471;-43
2022/05/20 03:30:32;;;;;;;7.30;5.77;;;19.30;99.90;;;;;;4978241;28;20444;-46
2022/05/20 03:33:00;;;;;;;8.50;6.80;;;19.30;99.90;;;;;;4977989;29;20446;-46
2022/05/20 03:35:27;;;;;;;7.00;5.30;;;19.30;99.90;;;;;;4977603;29;21042;-45
2022/05/20 03:37:53;;;;;;;5.97;4.93;;;19.20;99.90;;;;;;4978036;29;20848;-46
2022/05/20 03:40:20;;;;;;;7.60;6.10;;;19.30;99.90;;;;;;4977676;29;20493;-45
2022/05/20 03:42:47;;;;;;;7.63;6.87;;;19.30;99.90;;;;;;4977835;29;20436;-47
2022/05/20 03:45:16;;;;;;;7.93;6.20;;;19.30;99.90;;;;;;4977814;29;20454;-43
2022/05/20 03:47:43;;;;;;;7.83;6.10;;;19.30;99.90;;;;;;4977529;29;20447;-45
2022/05/20 03:50:11;;;;;;;8.33;6.70;;;19.30;99.90;;;;;;4977299;29;20462;-42
2022/05/20 03:52:40;;;;;;;7.73;6.93;;;19.30;99.90;;;;;;4978179;29;20499;-39
2022/05/20 03:55:08;;;;;;;8.17;7.20;;;19.30;99.90;;;;;;4977954;29;20460;-43
2022/05/20 03:57:35;;;;;;;8.00;7.20;;;19.30;99.90;;;;;;4978097;28;20499;-48
2022/05/20 04:00:01;;;;;;;9.30;6.70;;;19.30;99.90;;;;;;4977809;29;20475;-49
2022/05/20 04:02:27;;;;;;;12.83;6.27;;;19.20;99.90;;;;;;4976946;29;20486;-45
2022/05/20 04:04:55;;;;;;;9.33;6.17;;;19.30;99.90;;;;;;4977340;29;20495;-44
2022/05/20 04:07:25;;;;;;;7.00;5.70;;;19.20;99.90;;;;;;4977247;29;20208;-44
2022/05/20 04:09:54;;;;;;;9.00;7.00;;;19.20;99.90;;;;;;4977109;29;20444;-41
2022/05/20 04:12:26;;;;;;;8.00;6.27;;;19.20;99.90;;;;;;4977021;28;20487;-46
2022/05/20 04:14:53;;;;;;;8.70;7.37;;;19.20;99.90;;;;;;4976675;29;20440;-40
2022/05/20 04:17:20;;;;;;;13.43;7.00;;;19.20;99.90;;;;;;4976915;28;20475;-45
2022/05/20 04:19:47;;;;;;;11.63;7.57;;;19.20;99.90;;;;;;4977047;29;20447;-42
2022/05/20 04:22:17;;;;;;;7.50;6.80;;;19.20;99.90;;;;;;4976951;29;20451;-42
2022/05/20 04:24:45;;;;;;;8.20;6.90;;;19.20;99.90;;;;;;4973960;29;20450;-43
2022/05/20 04:27:13;;;;;;;9.50;5.90;;;19.20;99.90;;;;;;4958936;28;20445;-42
2022/05/20 04:29:40;;;;;;;8.60;6.20;;;19.20;99.90;;;;;;4956674;29;20528;-48
2022/05/20 04:32:07;;;;;;;8.63;7.37;;;19.20;99.90;;;;;;4957402;29;20496;-45
2022/05/20 04:34:34;;;;;;;8.33;6.57;;;19.30;99.90;;;;;;4957796;29;20457;-49
2022/05/20 04:37:01;;;;;;;9.43;7.60;;;19.20;99.90;;;;;;4957559;29;20436;-49
2022/05/20 04:39:28;;;;;;;7.90;6.70;;;19.30;99.90;;;;;;4957336;29;20465;-38
2022/05/20 04:47:27;;;;;;;21.63;8.10;;;19.30;99.90;;;;;;4957749;29;20484;-47
2022/05/20 04:49:55;;;;;;;9.50;7.90;;;19.30;99.90;;;;;;4956937;29;20449;-44
2022/05/20 04:52:24;;;;;;;9.47;7.90;;;19.30;99.90;;;;;;4957272;29;20492;-45
2022/05/20 04:54:50;;;;;;;8.03;6.97;;;19.30;99.90;;;;;;4957403;29;20429;-42
2022/05/20 04:57:37;;;;;;;7.80;7.00;;;19.40;99.90;;;;;;4957132;29;20468;-40
2022/05/20 05:00:08;;;;;;;8.80;7.70;;;19.40;99.90;;;;;;4957404;29;20484;-48
2022/05/20 05:02:35;;;;;;;7.50;6.70;;;19.50;99.90;;;;;;4956941;29;20425;-50
2022/05/20 05:05:03;;;;;;;9.90;7.50;;;19.50;99.90;;;;;;4956444;29;20480;-42
2022/05/20 05:07:29;;;;;;;7.57;6.53;;;19.50;99.90;;;;;;4956194;29;20448;-44
2022/05/20 05:09:56;;;;;;;11.07;7.40;;;19.60;99.90;;;;;;4957365;29;20456;-50
2022/05/20 05:12:23;;;;;;;9.43;8.40;;;19.60;99.90;;;;;;4957737;29;20492;-42
2022/05/20 05:14:53;;;;;;;9.90;7.77;;;19.70;99.90;;;;;;4957492;28;20461;-50
2022/05/20 05:20:05;;;;;;;9.17;7.60;;;19.60;99.90;;;;;;4955567;29;20436;-52
2022/05/20 05:22:33;;;;;;;9.30;8.23;;;19.60;99.90;;;;;;4956510;29;20453;-47
2022/05/20 05:24:59;;;;;;;9.67;8.10;;;19.70;99.90;;;;;;4957244;29;20487;-47
2022/05/20 05:27:26;;;;;;;8.53;7.53;;;19.70;99.90;;;;;;4958439;29;20472;-46
2022/05/20 05:29:54;;;;;;;9.70;8.57;;;19.70;99.90;;;;;;4963050;29;20488;-46
2022/05/20 05:32:21;;;;;;;11.17;9.00;;;19.80;99.90;;;;;;4972313;28;20459;-43
2022/05/20 05:34:47;;;;;;;10.47;9.37;;;19.90;99.90;;;;;;4979479;28;20483;-43
2022/05/20 05:37:16;;;;;;;9.17;8.27;;;19.90;99.90;;;;;;4982545;28;20447;-48
2022/05/20 05:39:42;;;;;;;8.93;8.03;;;19.90;99.90;;;;;;4981784;28;20463;-39
2022/05/20 05:42:09;;;;;;;11.67;8.10;;;19.90;99.90;;;;;;4980575;28;20471;-40
2022/05/20 05:44:37;;;;;;;10.23;8.70;;;19.90;99.90;;;;;;4980769;28;20452;-48
2022/05/20 05:47:05;;;;;;;11.30;9.40;;;19.90;99.90;;;;;;4981293;28;20478;-40
2022/05/20 05:49:32;;;;;;;13.10;9.30;;;20.00;99.90;;;;;;4974778;28;20451;-41
2022/05/20 05:52:01;;;;;;;14.40;9.97;;;20.10;99.90;;;;;;4977637;29;20483;-39
2022/05/20 05:54:27;;;;;;;11.80;9.47;;;20.30;99.90;;;;;;4978800;29;20507;-45
2022/05/20 05:56:54;;;;;;;11.80;10.17;;;20.30;99.90;;;;;;4981079;28;20435;-44
2022/05/20 05:59:21;;;;;;;11.90;8.47;;;20.30;99.90;;;;;;4977908;28;20901;-50
2022/05/20 06:01:49;;;;;;;10.63;9.53;;;20.30;99.90;;;;;;4979107;28;20883;-35
2022/05/20 06:04:17;;;;;;;10.17;8.60;;;20.30;99.90;;;;;;4966111;28;20464;-47
2022/05/20 06:06:44;;;;;;;10.63;8.70;;;20.30;99.90;;;;;;4959104;29;20528;-53
2022/05/20 06:09:11;;;;;;;10.80;9.40;;;20.30;99.90;;;;;;4973804;29;20447;-46
2022/05/20 06:11:37;;;;;;;12.27;8.97;;;20.40;99.90;;;;;;4978645;29;20447;-51
2022/05/20 06:14:05;;;;;;;9.23;8.33;;;20.50;99.90;;;;;;4980503;28;20462;-49
2022/05/20 06:16:31;;;;;;;11.60;9.67;;;20.50;99.90;;;;;;4981474;29;20515;-52
2022/05/20 06:18:59;;;;;;;10.77;9.50;;;20.50;99.90;;;;;;4977521;28;20492;-39
2022/05/20 06:21:27;;;;;;;11.67;8.27;;;20.50;99.90;;;;;;4978006;28;20464;-46
2022/05/20 06:23:54;;;;;;;12.67;9.30;;;20.50;99.90;;;;;;4976398;28;20447;-46
2022/05/20 06:26:21;;;;;;;12.10;8.80;;;20.60;99.90;;;;;;4980498;28;20865;-47
2022/05/20 06:28:47;;;;;;;9.03;8.13;;;20.50;99.90;;;;;;4980007;28;20451;-39
2022/05/20 06:31:14;;;;;;;10.67;7.60;;;20.40;99.90;;;;;;4975691;28;20543;-41
2022/05/20 06:33:41;;;;;;;8.63;7.83;;;20.40;99.90;;;;;;4980081;28;20486;-49
2022/05/20 06:41:40;;;;;;;9.10;8.20;;;20.20;99.90;;;;;;4975937;29;20652;-41
2022/05/20 06:44:07;;;;;;;9.07;8.17;;;20.20;99.90;;;;;;4974673;28;20428;-44
2022/05/20 06:46:34;;;;;;;10.83;7.43;;;20.20;99.90;;;;;;4975687;29;20463;-44
2022/05/20 06:49:01;;;;;;;8.53;7.63;;;20.30;99.90;;;;;;4974044;29;20479;-47
2022/05/20 06:51:30;;;;;;;9.70;8.40;;;20.40;99.90;;;;;;4974323;28;20510;-43
2022/05/20 06:54:00;;;;;;;6.63;5.67;;;20.30;99.90;;;;;;4976282;28;20460;-44
2022/05/20 06:56:29;;;;;;;11.17;6.70;;;20.30;99.90;;;;;;4976877;28;20444;-37
2022/05/20 06:58:56;;;;;;;6.40;5.20;;;20.40;99.90;;;;;;4976882;28;20468;-45
2022/05/20 07:01:23;;;;;;;7.60;5.70;;;20.40;99.90;;;;;;4976401;29;20467;-42
2022/05/20 07:03:51;;;;;;;6.97;6.27;;;20.40;99.90;;;;;;4971333;29;20432;-50
2022/05/20 07:06:18;;;;;;;9.30;6.30;;;20.40;99.90;;;;;;4972866;29;20921;-51
2022/05/20 07:08:48;;;;;;;7.13;5.27;;;20.50;99.90;;;;;;4977590;28;20459;-52
2022/05/20 07:11:18;;;;;;;5.70;5.17;;;20.70;99.90;;;;;;4973016;28;20472;-51
2022/05/20 07:13:45;;;;;;;5.20;4.70;;;21.00;99.90;;;;;;4978272;28;20476;-46
2022/05/20 07:16:12;;;;;;;6.20;5.40;;;21.70;99.90;;;;;;4976558;28;20669;-44
2022/05/20 07:18:41;;;;;;;7.40;4.33;;;22.70;99.90;;;;;;4978637;28;20468;-49
2022/05/20 07:21:08;;;;;;;4.77;4.20;;;23.60;99.90;;;;;;4977321;29;20467;-46
2022/05/20 07:23:35;;;;;;;4.40;3.97;;;24.60;99.90;;;;;;4977960;29;20444;-44
2022/05/20 07:26:02;;;;;;;5.50;5.00;;;25.40;99.90;;;;;;4975084;28;20459;-54
2022/05/20 07:28:31;;;;;;;5.20;4.70;;;26.20;99.90;;;;;;4974528;28;20456;-53
2022/05/20 07:30:58;;;;;;;5.30;4.87;;;26.30;99.90;;;;;;4974726;28;20455;-46
2022/05/20 07:33:25;;;;;;;4.37;4.07;;;25.90;99.90;;;;;;4973530;29;20467;-44
2022/05/20 07:35:52;;;;;;;5.40;5.00;;;26.10;99.90;;;;;;4977098;28;20464;-44
2022/05/20 07:38:19;;;;;;;5.47;4.43;;;26.80;99.90;;;;;;4976474;28;20459;-45
2022/05/20 07:40:45;;;;;;;4.57;4.23;;;27.20;99.90;;;;;;4977888;28;20436;-48
2022/05/20 07:43:13;;;;;;;4.40;4.00;;;27.70;98.40;;;;;;4977773;29;20491;-52
2022/05/20 07:45:41;;;;;;;5.00;4.63;;;28.00;97.30;;;;;;4978281;29;20448;-42
2022/05/20 07:48:08;;;;;;;4.87;4.40;;;28.30;96.40;;;;;;4977702;29;20495;-47
2022/05/20 07:50:40;;;;;;;5.00;4.47;;;28.90;93.90;;;;;;4977675;28;20436;-43
2022/05/20 07:53:22;;;;;;;4.87;4.40;;;29.10;92.20;;;;;;4977917;29;20468;-49
2022/05/20 07:55:53;;;;;;;4.50;4.10;;;29.50;91.20;;;;;;4977955;29;20499;-44
2022/05/20 07:58:25;;;;;;;4.87;3.90;;;29.60;88.30;;;;;;4978219;28;20440;-49
2022/05/20 08:00:54;;;;;;;4.13;3.70;;;29.70;87.30;;;;;;4978062;29;20436;-50
2022/05/20 08:06:03;;;;;;;5.10;4.40;;;30.00;82.70;;;;;;4976913;29;20431;-46
2022/05/20 08:08:29;;;;;;;4.10;3.30;;;30.50;80.00;;;;;;4977040;29;20452;-43
2022/05/20 08:10:56;;;;;;;4.47;4.07;;;30.60;78.90;;;;;;4977143;29;20468;-46
2022/05/20 08:13:26;;;;;;;4.87;4.43;;;30.30;78.30;;;;;;4977458;28;20538;-47
2022/05/20 08:15:54;;;;;;;4.73;4.30;;;29.60;78.70;;;;;;4977748;29;20475;-43
2022/05/20 08:18:20;;;;;;;4.53;4.13;;;29.00;81.60;;;;;;4977604;29;20448;-47
2022/05/20 08:20:47;;;;;;;4.10;3.70;;;28.50;82.70;;;;;;4976421;29;20488;-51
2022/05/20 08:23:14;;;;;;;4.17;3.77;;;28.60;83.10;;;;;;4970150;29;20414;-47
2022/05/20 08:25:40;;;;;;;6.90;3.83;;;28.70;80.90;;;;;;4977952;29;20474;-49
2022/05/20 08:28:08;;;;;;;4.07;3.77;;;29.00;80.00;;;;;;4977740;29;20432;-48
2022/05/20 08:30:34;;;;;;;3.87;3.57;;;29.30;78.90;;;;;;4977393;29;20495;-41
2022/05/20 08:33:02;;;;;;;5.90;4.17;;;29.40;77.70;;;;;;4978147;29;20518;-42
2022/05/20 08:35:29;;;;;;;5.83;4.07;;;29.80;77.00;;;;;;4977324;28;20455;-43
2022/05/20 08:37:56;;;;;;;4.03;3.17;;;30.30;75.90;;;;;;4977709;29;20486;-39
2022/05/20 08:40:25;;;;;;;4.80;3.67;;;30.60;72.90;;;;;;4977289;29;20442;-47
2022/05/20 08:42:56;;;;;;;4.00;3.60;;;30.80;70.90;;;;;;4967483;29;20447;-45
2022/05/20 08:45:26;;;;;;;3.53;3.23;;;30.70;69.40;;;;;;4968470;29;20455;-46
2022/05/20 08:47:53;;;;;;;5.17;4.10;;;30.70;67.90;;;;;;4974472;29;20443;-37
2022/05/20 08:50:24;;;;;;;4.47;4.07;;;30.90;67.80;;;;;;4967597;29;20472;-45
2022/05/20 08:52:54;;;;;;;5.53;4.10;;;30.90;67.50;;;;;;4976919;29;20471;-44
2022/05/20 08:55:21;;;;;;;5.77;3.60;;;31.20;66.30;;;;;;4977679;29;20479;-45
2022/05/20 08:57:51;;;;;;;4.47;3.67;;;31.30;66.10;;;;;;4976884;28;20440;-46
2022/05/20 09:00:19;;;;;;;4.00;3.40;;;31.30;66.00;;;;;;4967296;29;20459;-51
2022/05/20 09:02:46;;;;;;;3.67;3.30;;;31.10;65.80;;;;;;4975418;28;20455;-49
2022/05/20 09:05:24;;;;;;;3.43;2.97;;;31.30;65.60;;;;;;4972262;29;20459;-44
2022/05/20 09:07:58;;;;;;;3.60;2.90;;;31.20;63.90;;;;;;4976956;29;20436;-49
2022/05/20 09:10:34;;;;;;;4.10;3.80;;;31.20;63.60;;;;;;4967068;28;20496;-49
2022/05/20 09:13:14;;;;;;;8.20;3.60;;;31.30;63.70;;;;;;4964250;29;20534;-51
2022/05/20 09:15:55;;;;;;;4.47;3.40;;;30.80;63.60;;;;;;4976162;29;20427;-48
2022/05/20 09:18:33;;;;;;;4.07;3.67;;;30.30;63.60;;;;;;4976738;29;20470;-46
2022/05/20 09:21:01;;;;;;;4.80;4.40;;;29.80;65.80;;;;;;4976714;29;20447;-47
2022/05/20 09:23:29;;;;;;;3.50;3.20;;;30.00;66.50;;;;;;4976347;29;20532;-51
2022/05/20 09:26:04;;;;;;;3.20;2.90;;;30.30;64.10;;;;;;4976487;29;20479;-47
2022/05/20 09:28:36;;;;;;;3.50;3.20;;;31.00;62.20;;;;;;4976221;29;20471;-45
2022/05/20 09:31:21;;;;;;;3.30;3.00;;;31.30;61.80;;;;;;4976708;29;20436;-46
2022/05/20 09:33:55;;;;;;;3.60;3.30;;;31.70;60.20;;;;;;4976474;29;20491;-44
2022/05/20 09:36:39;;;;;;;3.37;3.07;;;32.20;59.40;;;;;;4976751;29;20503;-46
2022/05/20 09:39:12;;;;;;;3.50;3.00;;;32.40;58.00;;;;;;4976771;29;20439;-45
2022/05/20 09:41:48;;;;;;;3.90;2.90;;;32.50;58.00;;;;;;4976812;28;20419;-40
2022/05/20 09:44:16;;;;;;;3.60;3.10;;;32.60;56.10;;;;;;4976696;28;20424;-43
2022/05/20 09:46:51;;;;;;;3.10;2.80;;;32.30;55.80;;;;;;4976556;29;20454;-48
2022/05/20 09:49:22;;;;;;;5.70;3.10;;;32.20;56.90;;;;;;4968074;29;20428;-53
2022/05/20 09:51:55;;;;;;;4.13;3.20;;;32.20;56.70;;;;;;4973117;29;20448;-44
2022/05/20 09:54:29;;;;;;;4.57;3.17;;;31.90;56.40;;;;;;4976266;28;20466;-43
2022/05/20 09:57:03;;;;;;;4.37;3.20;;;31.30;56.70;;;;;;4968684;29;20472;-41
2022/05/20 09:59:37;;;;;;;3.70;3.40;;;30.80;57.40;;;;;;4976589;28;20431;-46
2022/05/20 10:02:09;;;;;;;3.23;3.00;;;30.70;58.20;;;;;;4976642;28;20502;-44
2022/05/20 10:04:44;;;;;;;7.27;3.30;;;30.80;58.50;;;;;;4976799;29;20432;-47
2022/05/20 10:07:18;;;;;;;4.33;3.87;;;30.90;57.70;;;;;;4976702;29;20475;-53
2022/05/20 10:09:54;;;;;;;5.77;3.63;;;30.60;58.80;;;;;;4977411;29;20907;-48
2022/05/20 10:12:28;;;;;;;3.97;3.40;;;30.60;58.70;;;;;;4976453;28;20428;-49
2022/05/20 10:15:01;;;;;;;3.47;3.17;;;30.60;59.70;;;;;;4979204;28;20472;-43
2022/05/20 10:17:43;;;;;;;4.10;3.47;;;31.00;58.10;;;;;;4980236;29;20428;-43
2022/05/20 10:20:17;;;;;;;4.50;3.53;;;31.00;58.00;;;;;;4980658;28;20444;-49
2022/05/20 10:22:55;;;;;;;4.10;3.63;;;30.90;58.20;;;;;;4980813;29;20463;-39
2022/05/20 10:25:29;;;;;;;4.10;3.30;;;30.90;57.60;;;;;;4980493;29;20420;-46
2022/05/20 10:28:02;;;;;;;5.23;3.03;;;30.30;57.80;;;;;;4979104;28;20428;-47
2022/05/20 10:33:28;;;;;;;3.87;3.53;;;30.20;59.00;;;;;;4949574;29;20496;-49
2022/05/20 10:36:03;;;;;;;3.30;3.10;;;30.40;58.40;;;;;;4979956;29;20482;-45
2022/05/20 10:38:45;;;;;;;4.40;4.00;;;30.30;57.90;;;;;;4980172;28;20408;-48
2022/05/20 10:41:22;;;;;;;4.20;3.83;;;30.10;57.80;;;;;;4979928;29;20459;-50
2022/05/20 10:49:55;;;;;;;4.10;3.33;;;30.00;57.30;;;;;;4978796;29;20415;-46
2022/05/20 10:52:35;;;;;;;3.50;3.20;;;29.80;58.40;;;;;;4979339;29;20569;-49
2022/05/20 10:55:20;;;;;;;5.50;3.17;;;29.60;58.30;;;;;;4979027;28;20515;-43
2022/05/20 10:58:07;;;;;;;4.23;3.30;;;29.30;57.60;;;;;;4978773;29;20506;-51
2022/05/20 11:00:45;;;;;;;7.07;2.87;;;28.80;56.90;;;;;;4978475;29;20516;-39
2022/05/20 11:03:49;;;;;;;4.27;3.30;;;28.60;56.80;;;;;;4978732;29;20476;-41
2022/05/20 11:06:42;;;;;;;3.10;2.90;;;28.40;57.30;;;;;;4979278;29;20512;-46
2022/05/20 11:09:18;;;;;;;5.90;2.80;;;28.30;58.40;;;;;;4979216;29;20527;-47
2022/05/20 11:11:57;;;;;;;3.27;2.83;;;28.30;58.50;;;;;;4977565;29;20439;-53
2022/05/20 11:14:40;;;;;;;4.13;2.87;;;28.30;57.50;;;;;;4972406;29;20535;-44
2022/05/20 11:17:25;;;;;;;3.80;3.50;;;28.10;58.80;;;;;;4978554;29;20436;-47
2022/05/20 11:20:06;;;;;;;3.40;3.10;;;28.10;59.10;;;;;;4972799;29;20536;-47
2022/05/20 11:23:03;;;;;;;3.10;2.57;;;27.80;59.50;;;;;;4978209;29;20452;-41
2022/05/20 11:26:09;;;;;;;3.87;2.80;;;27.60;58.20;;;;;;4977856;28;20468;-45
2022/05/20 11:28:55;;;;;;;3.07;2.83;;;27.30;59.60;;;;;;4978944;29;21054;-46
2022/05/20 11:31:46;;;;;;;4.57;3.17;;;27.30;60.10;;;;;;4978258;29;20486;-45
2022/05/20 11:34:44;;;;;;;2.60;2.40;;;27.40;59.30;;;;;;4977743;29;20476;-41
2022/05/20 11:37:25;;;;;;;2.23;2.03;;;27.60;58.60;;;;;;4962996;29;20515;-52
2022/05/20 11:40:13;;;;;;;8.43;3.40;;;27.80;58.80;;;;;;4977282;29;20447;-49
2022/05/20 11:42:58;;;;;;;3.23;2.67;;;27.90;59.80;;;;;;4977586;29;20483;-47
2022/05/20 11:45:35;;;;;;;3.33;2.20;;;28.00;58.60;;;;;;4978125;29;20432;-41
2022/05/20 11:48:30;;;;;;;3.03;2.57;;;28.00;59.10;;;;;;4978435;28;20472;-46
2022/05/20 11:51:23;;;;;;;3.40;3.00;;;27.80;59.30;;;;;;4969458;28;20440;-39
2022/05/20 11:53:55;;;;;;;4.37;3.90;;;27.60;59.50;;;;;;4976612;28;20471;-45
2022/05/20 11:56:29;;;;;;;2.87;2.57;;;27.40;59.70;;;;;;4977713;29;20475;-42
2022/05/20 11:59:01;;;;;;;4.13;3.50;;;27.40;60.10;;;;;;4977775;29;20471;-49
2022/05/20 12:01:31;;;;;;;3.33;2.90;;;27.40;59.60;;;;;;4977915;29;20479;-47
2022/05/20 12:04:08;;;;;;;4.00;3.10;;;27.40;59.50;;;;;;4977718;29;20440;-40
2022/05/20 12:06:40;;;;;;;3.10;2.40;;;27.40;59.30;;;;;;4977638;29;20428;-38
2022/05/20 12:09:27;;;;;;;3.03;2.70;;;27.40;58.70;;;;;;4977655;29;20432;-45
2022/05/20 12:12:19;;;;;;;2.77;2.57;;;27.30;58.40;;;;;;4977349;29;20432;-48
2022/05/20 12:15:23;;;;;;;2.60;2.40;;;27.30;58.20;;;;;;4977527;29;20536;-37
2022/05/20 12:17:52;;;;;;;3.20;1.90;;;27.10;57.00;;;;;;4953214;29;20460;-49
2022/05/20 12:26:22;;;;;;;3.23;2.27;;;27.00;56.30;;;;;;4977682;29;20475;-46
2022/05/20 12:28:49;;;;;;;4.50;2.87;;;27.10;56.50;;;;;;4977644;29;20428;-42
2022/05/20 12:31:37;;;;;;;4.90;3.20;;;27.00;56.90;;;;;;4977065;29;20511;-44
2022/05/20 12:34:10;;;;;;;3.13;2.83;;;27.20;58.20;;;;;;4977761;28;20475;-48
2022/05/20 12:36:38;;;;;;;2.10;1.90;;;27.20;58.00;;;;;;4976766;28;20452;-47
2022/05/20 12:39:18;;;;;;;2.70;2.50;;;27.40;57.90;;;;;;4977219;29;20479;-47
2022/05/20 12:41:58;;;;;;;3.93;2.53;;;27.50;57.90;;;;;;4977656;29;20948;-49
2022/05/20 12:44:35;;;;;;;2.93;2.57;;;27.60;57.00;;;;;;4977890;29;20467;-45
2022/05/20 12:47:17;;;;;;;2.67;2.40;;;27.50;56.90;;;;;;4978110;29;20439;-58
2022/05/20 12:49:55;;;;;;;2.73;2.53;;;27.60;56.70;;;;;;4977232;29;20503;-49
2022/05/20 12:52:26;;;;;;;2.50;2.27;;;27.50;55.40;;;;;;4977160;29;20463;-51
2022/05/20 12:54:55;;;;;;;2.80;2.20;;;27.30;55.10;;;;;;4977106;28;20575;-50
2022/05/20 12:57:25;;;;;;;4.17;2.40;;;27.20;56.00;;;;;;4977072;29;20455;-51
2022/05/20 12:59:56;;;;;;;2.73;2.07;;;27.20;56.00;;;;;;4977029;28;20440;-48
2022/05/20 13:02:27;;;;;;;2.63;2.43;;;27.20;55.90;;;;;;4977125;29;20459;-44
2022/05/20 13:05:02;;;;;;;2.40;2.20;;;27.10;56.00;;;;;;4977027;29;20427;-48
2022/05/20 13:07:30;;;;;;;2.33;2.13;;;27.10;56.00;;;;;;4977170;29;20452;-39
2022/05/20 13:09:56;;;;;;;2.47;2.27;;;27.00;56.40;;;;;;4976596;29;20472;-48
2022/05/20 13:12:24;;;;;;;2.53;2.33;;;27.00;56.50;;;;;;4976459;29;20478;-43
2022/05/20 13:15:00;;;;;;;3.20;2.10;;;26.90;56.90;;;;;;4976784;29;20494;-47
2022/05/20 13:17:36;;;;;;;2.60;2.40;;;26.90;57.20;;;;;;4976590;29;20467;-42
2022/05/20 13:20:06;;;;;;;2.37;2.17;;;27.00;57.20;;;;;;4976337;29;20448;-46
2022/05/20 13:22:33;;;;;;;2.47;2.27;;;27.00;57.00;;;;;;4976406;28;20468;-43
2022/05/20 13:25:03;;;;;;;2.83;1.80;;;27.00;56.90;;;;;;4976463;28;20439;-43
2022/05/20 13:27:30;;;;;;;2.53;2.33;;;27.10;56.30;;;;;;4976169;29;20496;-45
2022/05/20 13:30:09;;;;;;;2.40;2.20;;;27.10;56.10;;;;;;4976069;29;20431;-49
2022/05/20 13:32:36;;;;;;;4.37;2.20;;;27.20;55.90;;;;;;4976727;29;20447;-48
2022/05/20 13:35:06;;;;;;;4.10;2.67;;;27.30;55.70;;;;;;4976439;29;20479;-47
2022/05/20 13:37:37;;;;;;;2.80;2.30;;;27.20;55.20;;;;;;4976470;29;20455;-42
2022/05/20 13:40:12;;;;;;;2.40;2.20;;;27.20;54.90;;;;;;4976405;29;20483;-46
2022/05/20 13:42:40;;;;;;;2.30;2.10;;;27.00;55.20;;;;;;4976404;29;20462;-47
2022/05/20 13:45:10;;;;;;;2.63;2.00;;;26.90;55.90;;;;;;4976401;29;20460;-47